Westover, South Dakota
Current Conditions -  °F | °C
As of 12:55 AM on Friday 31 Oct 2014 (Local Time) from KPHP Reporting Station
Overcast Overcast  
Wind Chill: 27°   Ceiling: 1200
Heat Index: 35°   Visibility: 10mi
Dew Point: 29°   Wind: 12mph
Humidity: 78%   Direction: 70°ENE
Pressure: 30.53"   Gusts: NA
Location:  43.6197°N, 100.883°W
Report Text: KPHP 310555Z AUTO 07010KT 10SM OVC012 02/M02 A3053 RMK AO2 SLP351 T00171017 10039 21033 51010
Loading
Personal Weather Stations






























Interactive Weather Map
Tropical Storm Tracking
New forecast layout! Learn more

10-Day Weather Forecast

Advertisements
Track Severe Weather on mobile